Terminal Aerodrome Forecast
Issued by NWS

Home | Current Version | Previous Version | Text Only | Print | Product List | Glossary On
Versions: 1 2 3 4 5 6 7 8 9 10 11 12 13 14 15
000
FTUS44 KLUB 272341
TAFCDS
TAF
KCDS 272341Z 2800/2824 15011KT P6SM SCT040 BKN250
     FM280900 14009KT 5SM BR SCT005 BKN025
     FM281600 18011KT P6SM SCT025 BKN150=

USA.gov is the U.S. government's official web portal to all federal, state and local government web resources and services.